createdAt,value
2022-07-26T00:01:12.766Z,1.43
2022-07-26T00:06:37.540Z,1.37
2022-07-26T00:12:00.895Z,1.77
2022-07-26T00:17:24.414Z,1.30
2022-07-26T00:22:49.308Z,1.20
2022-07-26T00:28:13.175Z,1.33
2022-07-26T00:33:37.061Z,1.17
2022-07-26T00:39:01.890Z,1.30
2022-07-26T00:44:25.161Z,1.30
2022-07-26T00:49:48.746Z,1.40
2022-07-26T00:55:14.896Z,1.40
2022-07-26T01:00:38.409Z,2.27
2022-07-26T01:06:02.184Z,2.10
2022-07-26T01:11:26.975Z,1.97
2022-07-26T01:16:51.177Z,1.97
2022-07-26T01:22:15.950Z,1.67
2022-07-26T01:27:43.017Z,1.83
2022-07-26T01:33:06.988Z,2.30
2022-07-26T01:38:31.557Z,1.83
2022-07-26T01:43:54.993Z,1.50
2022-07-26T01:49:19.840Z,2.10
2022-07-26T01:54:44.651Z,1.93
2022-07-26T02:00:09.890Z,1.70
2022-07-26T02:05:33.258Z,2.00
2022-07-26T02:11:04.541Z,1.53
2022-07-26T02:16:27.938Z,1.70
2022-07-26T02:21:51.319Z,1.73
2022-07-26T02:27:18.955Z,1.60
2022-07-26T02:32:43.984Z,1.80
2022-07-26T02:38:09.341Z,1.50
2022-07-26T02:43:36.079Z,1.60
2022-07-26T02:48:59.841Z,2.10
2022-07-26T02:54:23.080Z,1.80
2022-07-26T02:59:48.028Z,2.70
2022-07-26T03:05:12.577Z,2.00
2022-07-26T03:10:36.113Z,2.10
2022-07-26T03:16:02.554Z,1.90
2022-07-26T03:21:26.020Z,2.43
2022-07-26T03:26:52.148Z,2.10
2022-07-26T03:32:16.879Z,2.57
2022-07-26T03:37:45.912Z,1.90
2022-07-26T03:43:09.937Z,2.20
2022-07-26T03:48:35.339Z,2.10
2022-07-26T03:53:58.605Z,2.60
2022-07-26T03:59:24.214Z,2.00
2022-07-26T04:04:49.597Z,2.10
2022-07-26T04:10:15.612Z,2.20
2022-07-26T04:15:42.298Z,2.93
2022-07-26T04:21:07.456Z,2.23
2022-07-26T04:26:31.117Z,2.00
2022-07-26T04:31:57.747Z,2.37
2022-07-26T04:37:22.844Z,2.33
2022-07-26T04:42:47.131Z,2.40
2022-07-26T04:48:10.417Z,2.10
2022-07-26T04:53:35.027Z,2.10
2022-07-26T04:58:58.903Z,2.47
2022-07-26T05:04:22.388Z,2.43
2022-07-26T05:09:47.078Z,2.60
2022-07-26T05:15:13.680Z,2.57
2022-07-26T05:20:38.761Z,2.47
2022-07-26T05:26:03.440Z,3.00
2022-07-26T05:31:27.064Z,2.30
2022-07-26T05:36:50.729Z,2.80
2022-07-26T05:42:16.034Z,3.20
2022-07-26T05:47:41.441Z,2.77
2022-07-26T05:53:04.978Z,2.93
2022-07-26T05:58:32.191Z,3.43
2022-07-26T06:03:55.593Z,2.77
2022-07-26T06:09:18.915Z,3.00
2022-07-26T06:14:45.009Z,3.47
2022-07-26T06:20:12.138Z,3.17
2022-07-26T06:25:37.274Z,3.17
2022-07-26T06:31:02.555Z,3.33
2022-07-26T06:36:30.316Z,3.20
2022-07-26T06:41:54.759Z,3.10
2022-07-26T06:47:19.479Z,3.10
2022-07-26T06:52:42.990Z,3.30
2022-07-26T06:58:11.632Z,2.23
2022-07-26T07:03:36.989Z,2.90
2022-07-26T07:09:00.466Z,2.77
2022-07-26T07:14:23.864Z,2.80
2022-07-26T07:19:48.955Z,2.90
2022-07-26T07:25:14.739Z,3.10
2022-07-26T07:30:38.445Z,3.27
2022-07-26T07:36:03.126Z,2.77
2022-07-26T07:41:26.712Z,3.22
2022-07-26T07:46:50.409Z,2.80
2022-07-26T07:52:15.139Z,3.20
2022-07-26T07:57:40.270Z,3.00
2022-07-26T08:03:03.698Z,3.17
2022-07-26T08:08:28.310Z,2.92
2022-07-26T08:13:52.077Z,2.30
2022-07-26T08:19:16.268Z,2.53
2022-07-26T08:24:41.849Z,2.47
2022-07-26T08:30:06.230Z,2.20
2022-07-26T08:35:33.100Z,2.70
2022-07-26T08:40:57.847Z,2.77
2022-07-26T08:46:25.176Z,2.40
2022-07-26T08:51:49.147Z,2.80
2022-07-26T08:57:14.704Z,2.67
2022-07-26T09:02:41.757Z,2.97
2022-07-26T09:08:25.015Z,2.60
2022-07-26T09:13:54.538Z,3.05
2022-07-26T09:19:22.635Z,3.03
2022-07-26T09:24:47.834Z,2.72
2022-07-26T09:30:18.183Z,2.75
2022-07-26T09:35:50.473Z,2.58
2022-07-26T09:41:20.564Z,2.17
2022-07-26T09:46:54.160Z,2.28
2022-07-26T09:52:18.832Z,1.98
2022-07-26T09:57:43.830Z,2.28
2022-07-26T10:03:12.730Z,2.53
2022-07-26T10:08:36.559Z,2.10
2022-07-26T10:14:01.697Z,1.98
2022-07-26T10:19:45.529Z,1.98
2022-07-26T10:25:42.407Z,1.60
2022-07-26T10:31:31.297Z,1.60
2022-07-26T10:37:02.338Z,1.60
2022-07-26T10:42:44.302Z,1.30
2022-07-26T10:48:12.458Z,1.30
2022-07-26T10:53:37.334Z,0.93
2022-07-26T10:59:01.109Z,0.83
2022-07-26T11:04:26.921Z,1.40
2022-07-26T11:09:55.784Z,0.90
2022-07-26T11:15:20.352Z,1.27
2022-07-26T11:20:45.487Z,0.83
2022-07-26T11:26:15.814Z,0.70
2022-07-26T11:31:50.400Z,0.80
2022-07-26T11:37:20.054Z,0.80
2022-07-26T11:42:44.895Z,0.82
2022-07-26T11:48:09.222Z,1.05
2022-07-26T11:53:37.376Z,1.10
2022-07-26T11:59:02.990Z,1.05
2022-07-26T12:04:28.499Z,2.43
2022-07-26T12:09:53.592Z,1.63
2022-07-26T12:15:18.537Z,1.30
2022-07-26T12:21:03.686Z,1.20
2022-07-26T12:26:30.729Z,1.20
2022-07-26T12:32:12.104Z,1.00
2022-07-26T12:37:40.985Z,0.75
2022-07-26T12:43:04.863Z,0.70
2022-07-26T12:48:29.520Z,0.70
2022-07-26T12:53:54.224Z,0.90
2022-07-26T12:59:21.005Z,1.00
2022-07-26T13:04:49.208Z,1.10
2022-07-26T13:10:33.249Z,0.77
2022-07-26T13:15:57.400Z,0.82
2022-07-26T13:27:55.516Z,1.00
2022-07-26T13:40:20.878Z,0.98
2022-07-26T14:39:17.424Z,1.23
2022-07-26T14:45:55.082Z,0.80
2022-07-26T17:28:18.671Z,1.20
2022-07-26T17:33:42.282Z,1.13
2022-07-26T17:39:06.053Z,1.33
2022-07-26T17:44:32.832Z,1.57
2022-07-26T17:50:08.922Z,1.03
2022-07-26T17:55:41.583Z,1.77
2022-07-26T18:01:08.392Z,1.60
2022-07-26T18:06:32.714Z,1.40
2022-07-26T18:12:03.265Z,1.20
2022-07-26T18:17:28.343Z,1.37
2022-07-26T18:22:51.976Z,1.40
2022-07-26T18:28:16.593Z,1.60
2022-07-26T18:33:41.989Z,1.40
2022-07-26T18:39:06.990Z,2.10
2022-07-26T18:44:33.311Z,2.23
2022-07-26T18:49:58.283Z,2.27
2022-07-26T18:55:23.043Z,1.83
2022-07-26T19:00:46.696Z,1.70
2022-07-26T19:06:13.211Z,1.90
2022-07-26T19:11:37.781Z,2.40
2022-07-26T19:17:01.658Z,2.00
2022-07-26T19:22:26.669Z,2.17
2022-07-26T19:27:49.903Z,2.10
2022-07-26T19:33:13.182Z,2.07
2022-07-26T19:38:38.952Z,1.73
2022-07-26T19:44:02.376Z,1.53
2022-07-26T19:49:26.196Z,1.20
2022-07-26T19:54:51.719Z,2.10
2022-07-26T20:00:16.095Z,1.50
2022-07-26T20:05:41.655Z,1.87
2022-07-26T20:11:06.642Z,1.70
2022-07-26T20:16:32.339Z,1.83
2022-07-26T20:21:56.395Z,1.57
2022-07-26T20:27:21.071Z,1.50
2022-07-26T20:32:44.363Z,1.40
2022-07-26T20:38:07.704Z,1.50
2022-07-26T20:43:32.461Z,1.47
2022-07-26T20:48:57.808Z,1.43
2022-07-26T20:54:21.079Z,1.17
2022-07-26T20:59:46.295Z,1.20
2022-07-26T21:05:10.550Z,1.10
2022-07-26T21:10:33.946Z,0.90
2022-07-26T21:15:58.736Z,1.83
2022-07-26T21:21:22.293Z,1.47
2022-07-26T21:26:45.998Z,1.37
2022-07-26T21:32:10.788Z,1.43
2022-07-26T21:37:34.300Z,1.20
2022-07-26T21:42:58.092Z,1.00
2022-07-26T21:48:23.091Z,0.90
2022-07-26T21:53:46.638Z,1.20
2022-07-26T21:59:10.251Z,1.23
2022-07-26T22:04:35.134Z,0.83
2022-07-26T22:10:01.628Z,0.97
2022-07-26T22:15:25.251Z,1.40
2022-07-26T22:20:54.284Z,1.33
2022-07-26T22:26:17.868Z,1.47
2022-07-26T22:31:41.245Z,1.30
2022-07-26T22:37:06.529Z,1.27
2022-07-26T22:42:30.095Z,1.70
2022-07-26T22:47:56.279Z,1.20
2022-07-26T22:53:21.583Z,1.13
2022-07-26T22:58:44.920Z,1.47
2022-07-26T23:04:09.140Z,1.37
2022-07-26T23:09:33.974Z,1.10
2022-07-26T23:14:58.645Z,1.20
2022-07-26T23:20:22.029Z,1.10
2022-07-26T23:25:46.817Z,1.10
2022-07-26T23:31:12.805Z,0.83
2022-07-26T23:36:36.313Z,1.33
2022-07-26T23:42:02.905Z,1.20
2022-07-26T23:47:27.131Z,1.37
2022-07-26T23:52:50.729Z,0.90
2022-07-26T23:58:15.479Z,1.07
